UAL2145 KORD-KSFO
Flight info
| Callsign | UAL2145 |
|---|---|
| Flight time | 4h 5m |
| Altitude | 32000 |
| Route | MYKIE MONNY IANNA FOD KD78A/N0464F340 DDY MLD MYBAD Q132 ANAHO LEGGS BDEGA4 |
| Aircraft | B753/M-SDE2E3FGHIJ3J4J7RWXY/LB1 |
Departure
| Time | 2026-05-06 09:50 |
|---|---|
| Airport | Chicago O'Hare International Airport (KORD) |
Arrival
| Time | 2026-05-06 13:55 |
|---|---|
| Airport | San Francisco International Airport (KSFO) |
| Time | Latitude | Longitude | Altitude | Speed | Heading |
|---|---|---|---|---|---|
| 2026-05-06 08:52 | 41.97958 | -87.90920 | 677 ft | 0 kts | 279° |
| 2026-05-06 09:33 | 41.97957 | -87.90901 | 677 ft | 2 kts | 261° |
| 2026-05-06 09:34 | 41.97961 | -87.90882 | 677 ft | 2 kts | 245° |
| 2026-05-06 09:34 | 41.97969 | -87.90865 | 677 ft | 2 kts | 228° |
| 2026-05-06 09:34 | 41.97980 | -87.90852 | 677 ft | 2 kts | 211° |
| 2026-05-06 09:34 | 41.97994 | -87.90844 | 677 ft | 2 kts | 194° |
| 2026-05-06 09:35 | 41.98001 | -87.90842 | 677 ft | 0 kts | 187° |
| 2026-05-06 09:35 | 41.97973 | -87.90849 | 677 ft | 7 kts | 189° |
| 2026-05-06 09:35 | 41.97932 | -87.90859 | 677 ft | 3 kts | 189° |
| 2026-05-06 09:35 | 41.97923 | -87.90861 | 677 ft | 0 kts | 189° |
| 2026-05-06 09:41 | 41.97910 | -87.90864 | 677 ft | 5 kts | 188° |
| 2026-05-06 09:42 | 41.97844 | -87.90877 | 677 ft | 12 kts | 188° |
| 2026-05-06 09:42 | 41.97734 | -87.90904 | 677 ft | 19 kts | 193° |
| 2026-05-06 09:42 | 41.97598 | -87.90942 | 677 ft | 20 kts | 216° |
| 2026-05-06 09:42 | 41.97538 | -87.91033 | 677 ft | 0 kts | 177° |
| 2026-05-06 09:43 | 41.97482 | -87.91039 | 677 ft | 16 kts | 182° |
| 2026-05-06 09:43 | 41.97363 | -87.90918 | 677 ft | 29 kts | 136° |
| 2026-05-06 09:43 | 41.97224 | -87.90756 | 677 ft | 20 kts | 175° |
| 2026-05-06 09:43 | 41.97153 | -87.90845 | 677 ft | 11 kts | 247° |
| 2026-05-06 09:44 | 41.97139 | -87.91020 | 677 ft | 23 kts | 261° |
| 2026-05-06 09:44 | 41.97036 | -87.91071 | 677 ft | 16 kts | 121° |
| 2026-05-06 09:44 | 41.97023 | -87.90939 | 677 ft | 12 kts | 90° |
| 2026-05-06 09:44 | 41.97024 | -87.90836 | 677 ft | 10 kts | 89° |
| 2026-05-06 09:45 | 41.97023 | -87.90715 | 677 ft | 15 kts | 89° |
| 2026-05-06 09:45 | 41.97024 | -87.90572 | 677 ft | 14 kts | 90° |
| 2026-05-06 09:45 | 41.97024 | -87.90437 | 677 ft | 17 kts | 90° |
| 2026-05-06 09:45 | 41.97024 | -87.90300 | 677 ft | 0 kts | 94° |
| 2026-05-06 09:46 | 41.97023 | -87.90275 | 677 ft | 7 kts | 92° |
| 2026-05-06 09:46 | 41.97024 | -87.90125 | 677 ft | 25 kts | 90° |
| 2026-05-06 09:46 | 41.97024 | -87.89873 | 677 ft | 26 kts | 90° |
| 2026-05-06 09:46 | 41.97020 | -87.89646 | 677 ft | 22 kts | 105° |
| 2026-05-06 09:47 | 41.96990 | -87.89559 | 677 ft | 0 kts | 129° |
| 2026-05-06 09:47 | 41.96982 | -87.89548 | 677 ft | 2 kts | 134° |
| 2026-05-06 09:47 | 41.96936 | -87.89529 | 677 ft | 12 kts | 174° |
| 2026-05-06 09:47 | 41.96890 | -87.89580 | 677 ft | 0 kts | 264° |
| 2026-05-06 09:49 | 41.96885 | -87.89698 | 677 ft | 40 kts | 269° |
| 2026-05-06 09:49 | 41.96885 | -87.90386 | 677 ft | 104 kts | 270° |
| 2026-05-06 09:49 | 41.96882 | -87.91639 | 677 ft | 162 kts | 270° |
| 2026-05-06 09:49 | 41.96878 | -87.93326 | 907 ft | 191 kts | 274° |
| 2026-05-06 09:50 | 41.97024 | -87.95093 | 1584 ft | 198 kts | 284° |
| 2026-05-06 09:50 | 41.97287 | -87.96925 | 2420 ft | 200 kts | 284° |
| 2026-05-06 09:50 | 41.97573 | -87.98766 | 3126 ft | 213 kts | 282° |
| 2026-05-06 09:50 | 41.98060 | -88.00800 | 3249 ft | 251 kts | 306° |
| 2026-05-06 09:51 | 41.99120 | -88.02872 | 3541 ft | 288 kts | 301° |
| 2026-05-06 09:51 | 42.00029 | -88.05359 | 3782 ft | 291 kts | 294° |
| 2026-05-06 09:51 | 42.00775 | -88.07855 | 3911 ft | 281 kts | 292° |
| 2026-05-06 09:51 | 42.01419 | -88.10308 | 4705 ft | 279 kts | 290° |
| 2026-05-06 09:52 | 42.01984 | -88.12638 | 6152 ft | 260 kts | 288° |
| 2026-05-06 09:52 | 42.02507 | -88.14893 | 7198 ft | 257 kts | 287° |
| 2026-05-06 09:52 | 42.03027 | -88.17227 | 8028 ft | 260 kts | 287° |
| 2026-05-06 09:52 | 42.03525 | -88.19510 | 8971 ft | 258 kts | 286° |
| 2026-05-06 09:53 | 42.04024 | -88.21830 | 9749 ft | 262 kts | 285° |
| 2026-05-06 09:53 | 42.04524 | -88.24170 | 10497 ft | 266 kts | 285° |
| 2026-05-06 09:53 | 42.05052 | -88.26662 | 10874 ft | 284 kts | 285° |
| 2026-05-06 09:53 | 42.05603 | -88.29274 | 11192 ft | 302 kts | 284° |
| 2026-05-06 09:54 | 42.06199 | -88.32104 | 11559 ft | 320 kts | 285° |
| 2026-05-06 09:54 | 42.06815 | -88.35034 | 12031 ft | 332 kts | 284° |
| 2026-05-06 09:54 | 42.07443 | -88.38018 | 12851 ft | 332 kts | 284° |
| 2026-05-06 09:54 | 42.08065 | -88.40985 | 13555 ft | 336 kts | 284° |
| 2026-05-06 09:55 | 42.08700 | -88.44015 | 14324 ft | 338 kts | 284° |
| 2026-05-06 09:55 | 42.09329 | -88.47025 | 15080 ft | 339 kts | 283° |
| 2026-05-06 09:55 | 42.09973 | -88.50112 | 15770 ft | 342 kts | 283° |
| 2026-05-06 09:55 | 42.10616 | -88.53200 | 16468 ft | 344 kts | 283° |
| 2026-05-06 09:56 | 42.11262 | -88.56310 | 17098 ft | 346 kts | 282° |
| 2026-05-06 09:56 | 42.11909 | -88.59420 | 17782 ft | 347 kts | 282° |
| 2026-05-06 09:56 | 42.12563 | -88.62578 | 18339 ft | 351 kts | 282° |
| 2026-05-06 09:56 | 42.13220 | -88.65749 | 18907 ft | 354 kts | 281° |
| 2026-05-06 09:57 | 42.13874 | -88.68916 | 19586 ft | 354 kts | 281° |
| 2026-05-06 09:57 | 42.14535 | -88.72121 | 20138 ft | 357 kts | 281° |
| 2026-05-06 09:57 | 42.15201 | -88.75351 | 20655 ft | 360 kts | 281° |
| 2026-05-06 09:57 | 42.15860 | -88.78607 | 21216 ft | 361 kts | 278° |
| 2026-05-06 09:58 | 42.16180 | -88.81936 | 21733 ft | 359 kts | 268° |
| 2026-05-06 09:58 | 42.16142 | -88.85285 | 22282 ft | 360 kts | 266° |
| 2026-05-06 09:58 | 42.16090 | -88.88657 | 22813 ft | 362 kts | 266° |
| 2026-05-06 09:58 | 42.16027 | -88.92042 | 23301 ft | 364 kts | 265° |
| 2026-05-06 09:59 | 42.15955 | -88.95466 | 23854 ft | 365 kts | 265° |
| 2026-05-06 09:59 | 42.15876 | -88.98898 | 24328 ft | 367 kts | 265° |
| 2026-05-06 09:59 | 42.15794 | -89.02331 | 24870 ft | 368 kts | 265° |
| 2026-05-06 09:59 | 42.15709 | -89.05791 | 25304 ft | 371 kts | 266° |
| 2026-05-06 10:00 | 42.15624 | -89.09208 | 25900 ft | 370 kts | 266° |
| 2026-05-06 10:00 | 42.15533 | -89.12703 | 26270 ft | 375 kts | 266° |
| 2026-05-06 10:00 | 42.15442 | -89.16218 | 26777 ft | 375 kts | 266° |
| 2026-05-06 10:00 | 42.15350 | -89.19735 | 27249 ft | 377 kts | 266° |
| 2026-05-06 10:01 | 42.15255 | -89.23264 | 27656 ft | 379 kts | 266° |
| 2026-05-06 10:01 | 42.15159 | -89.26803 | 28024 ft | 382 kts | 266° |
| 2026-05-06 10:01 | 42.15061 | -89.30388 | 28507 ft | 382 kts | 266° |
| 2026-05-06 10:01 | 42.14961 | -89.33987 | 28881 ft | 384 kts | 266° |
| 2026-05-06 10:02 | 42.14861 | -89.37575 | 29229 ft | 387 kts | 266° |
| 2026-05-06 10:02 | 42.14756 | -89.41225 | 29635 ft | 388 kts | 266° |
| 2026-05-06 10:02 | 42.14652 | -89.44827 | 30074 ft | 389 kts | 267° |
| 2026-05-06 10:02 | 42.14547 | -89.48492 | 30418 ft | 390 kts | 266° |
| 2026-05-06 10:03 | 42.14440 | -89.52122 | 30938 ft | 387 kts | 266° |
| 2026-05-06 10:03 | 42.14333 | -89.55749 | 31361 ft | 385 kts | 266° |
| 2026-05-06 10:03 | 42.14225 | -89.59352 | 31835 ft | 382 kts | 266° |
| 2026-05-06 10:03 | 42.14117 | -89.62901 | 31992 ft | 380 kts | 267° |
| 2026-05-06 10:04 | 42.13899 | -89.69989 | 32015 ft | 377 kts | 266° |
| 2026-05-06 10:04 | 42.13676 | -89.77096 | 32014 ft | 378 kts | 266° |
| 2026-05-06 10:05 | 42.13450 | -89.84159 | 32008 ft | 377 kts | 266° |
| 2026-05-06 10:05 | 42.13221 | -89.91167 | 32014 ft | 376 kts | 266° |
| 2026-05-06 10:06 | 42.12988 | -89.98197 | 32013 ft | 376 kts | 266° |
| 2026-05-06 10:06 | 42.12748 | -90.05265 | 32015 ft | 376 kts | 266° |
| 2026-05-06 10:07 | 42.12507 | -90.12279 | 32014 ft | 375 kts | 266° |
| 2026-05-06 10:07 | 42.12260 | -90.19290 | 32009 ft | 376 kts | 266° |
| 2026-05-06 10:08 | 42.12011 | -90.26299 | 32015 ft | 375 kts | 266° |
| 2026-05-06 10:08 | 42.11755 | -90.33336 | 32016 ft | 375 kts | 266° |
| 2026-05-06 10:09 | 42.11496 | -90.40322 | 32011 ft | 375 kts | 266° |
| 2026-05-06 10:09 | 42.11233 | -90.47347 | 32012 ft | 375 kts | 266° |
| 2026-05-06 10:10 | 42.10966 | -90.54356 | 32019 ft | 375 kts | 266° |
| 2026-05-06 10:10 | 42.10695 | -90.61368 | 32021 ft | 375 kts | 266° |
| 2026-05-06 10:11 | 42.10418 | -90.68373 | 32044 ft | 375 kts | 265° |
| 2026-05-06 10:11 | 42.10139 | -90.75362 | 32044 ft | 374 kts | 265° |
| 2026-05-06 10:12 | 42.09856 | -90.82321 | 32044 ft | 374 kts | 265° |
| 2026-05-06 10:12 | 42.09568 | -90.89338 | 32045 ft | 375 kts | 265° |
| 2026-05-06 10:13 | 42.09275 | -90.96337 | 32045 ft | 374 kts | 265° |
| 2026-05-06 10:13 | 42.08979 | -91.03303 | 32043 ft | 374 kts | 265° |
| 2026-05-06 10:14 | 42.08679 | -91.10281 | 32045 ft | 374 kts | 265° |
| 2026-05-06 10:14 | 42.08372 | -91.17333 | 32038 ft | 374 kts | 265° |
| 2026-05-06 10:15 | 42.08064 | -91.24294 | 32037 ft | 374 kts | 265° |
| 2026-05-06 10:15 | 42.08688 | -91.31256 | 32052 ft | 384 kts | 282° |
| 2026-05-06 10:16 | 42.10365 | -91.38054 | 32029 ft | 383 kts | 282° |
| 2026-05-06 10:16 | 42.12038 | -91.44881 | 32029 ft | 385 kts | 282° |
| 2026-05-06 10:17 | 42.13711 | -91.51712 | 32025 ft | 384 kts | 282° |
| 2026-05-06 10:17 | 42.15370 | -91.58505 | 32024 ft | 384 kts | 282° |
| 2026-05-06 10:18 | 42.17042 | -91.65376 | 32027 ft | 385 kts | 282° |
| 2026-05-06 10:18 | 42.18691 | -91.72156 | 32044 ft | 384 kts | 282° |
| 2026-05-06 10:19 | 42.20344 | -91.78984 | 32041 ft | 384 kts | 282° |
| 2026-05-06 10:19 | 42.21999 | -91.85838 | 32045 ft | 384 kts | 282° |
| 2026-05-06 10:20 | 42.23652 | -91.92704 | 32047 ft | 384 kts | 282° |
| 2026-05-06 10:20 | 42.25297 | -91.99557 | 32047 ft | 385 kts | 281° |
| 2026-05-06 10:21 | 42.26932 | -92.06391 | 32046 ft | 384 kts | 281° |
| 2026-05-06 10:21 | 42.28560 | -92.13212 | 32043 ft | 384 kts | 281° |
| 2026-05-06 10:22 | 42.30198 | -92.20103 | 32031 ft | 384 kts | 281° |
| 2026-05-06 10:22 | 42.31821 | -92.26941 | 32043 ft | 383 kts | 281° |
| 2026-05-06 10:23 | 42.33437 | -92.33775 | 32041 ft | 384 kts | 281° |
| 2026-05-06 10:23 | 42.35059 | -92.40655 | 32041 ft | 384 kts | 281° |
| 2026-05-06 10:24 | 42.36673 | -92.47527 | 32040 ft | 384 kts | 281° |
| 2026-05-06 10:24 | 42.38276 | -92.54369 | 32044 ft | 383 kts | 281° |
| 2026-05-06 10:25 | 42.39880 | -92.61235 | 32048 ft | 383 kts | 281° |
| 2026-05-06 10:25 | 42.41486 | -92.68137 | 32069 ft | 383 kts | 281° |
| 2026-05-06 10:26 | 42.43077 | -92.74987 | 32068 ft | 383 kts | 281° |
| 2026-05-06 10:26 | 42.44667 | -92.81860 | 32073 ft | 383 kts | 281° |
| 2026-05-06 10:27 | 42.46258 | -92.88757 | 32068 ft | 383 kts | 281° |
| 2026-05-06 10:27 | 42.47848 | -92.95670 | 32073 ft | 384 kts | 281° |
| 2026-05-06 10:28 | 42.49428 | -93.02559 | 32072 ft | 383 kts | 281° |
| 2026-05-06 10:28 | 42.50789 | -93.09465 | 32087 ft | 377 kts | 273° |
| 2026-05-06 10:29 | 42.51442 | -93.16489 | 32080 ft | 378 kts | 272° |
| 2026-05-06 10:29 | 42.52090 | -93.23535 | 32079 ft | 376 kts | 272° |
| 2026-05-06 10:30 | 42.52728 | -93.30608 | 32079 ft | 379 kts | 272° |
| 2026-05-06 10:30 | 42.53359 | -93.37682 | 32066 ft | 378 kts | 272° |
| 2026-05-06 10:31 | 42.53981 | -93.44705 | 32075 ft | 379 kts | 272° |
| 2026-05-06 10:31 | 42.54601 | -93.51781 | 32065 ft | 379 kts | 272° |
| 2026-05-06 10:32 | 42.55220 | -93.58903 | 32059 ft | 379 kts | 272° |
| 2026-05-06 10:32 | 42.55832 | -93.65982 | 32068 ft | 380 kts | 272° |
| 2026-05-06 10:33 | 42.56436 | -93.73039 | 32078 ft | 379 kts | 272° |
| 2026-05-06 10:33 | 42.57044 | -93.80162 | 32077 ft | 379 kts | 272° |
| 2026-05-06 10:34 | 42.57642 | -93.87254 | 32078 ft | 379 kts | 272° |
| 2026-05-06 10:34 | 42.58236 | -93.94350 | 32080 ft | 381 kts | 272° |
| 2026-05-06 10:35 | 42.58829 | -94.01463 | 32075 ft | 380 kts | 272° |
| 2026-05-06 10:35 | 42.59415 | -94.08566 | 32077 ft | 380 kts | 271° |
| 2026-05-06 10:36 | 42.60004 | -94.15760 | 32078 ft | 381 kts | 272° |
| 2026-05-06 10:36 | 42.60583 | -94.22884 | 32079 ft | 381 kts | 272° |
| 2026-05-06 10:37 | 42.61165 | -94.30035 | 32081 ft | 382 kts | 272° |
| 2026-05-06 10:37 | 42.61830 | -94.37154 | 32075 ft | 381 kts | 272° |
| 2026-05-06 10:38 | 42.62492 | -94.44310 | 32074 ft | 382 kts | 272° |
| 2026-05-06 10:38 | 42.63145 | -94.51417 | 32073 ft | 381 kts | 273° |
| 2026-05-06 10:39 | 42.63797 | -94.58558 | 32070 ft | 381 kts | 272° |
| 2026-05-06 10:39 | 42.64441 | -94.65659 | 32072 ft | 382 kts | 272° |
| 2026-05-06 10:40 | 42.65085 | -94.72819 | 32093 ft | 381 kts | 272° |
| 2026-05-06 10:40 | 42.65720 | -94.79936 | 32086 ft | 380 kts | 272° |
| 2026-05-06 10:41 | 42.66354 | -94.87085 | 32088 ft | 382 kts | 272° |
| 2026-05-06 10:41 | 42.66984 | -94.94235 | 32085 ft | 381 kts | 272° |
| 2026-05-06 10:42 | 42.67607 | -95.01366 | 32089 ft | 383 kts | 272° |
| 2026-05-06 10:42 | 42.68230 | -95.08539 | 32083 ft | 382 kts | 272° |
| 2026-05-06 10:43 | 42.68852 | -95.15754 | 32084 ft | 384 kts | 272° |
| 2026-05-06 10:44 | 42.69769 | -95.26520 | 32085 ft | 381 kts | 272° |
| 2026-05-06 10:44 | 42.70375 | -95.33686 | 32083 ft | 383 kts | 272° |
| 2026-05-06 10:45 | 42.70977 | -95.40868 | 32086 ft | 384 kts | 272° |
| 2026-05-06 10:45 | 42.71576 | -95.48048 | 32093 ft | 383 kts | 272° |
| 2026-05-06 10:46 | 42.72168 | -95.55225 | 32085 ft | 383 kts | 272° |
| 2026-05-06 10:46 | 42.72760 | -95.62449 | 32082 ft | 385 kts | 272° |
| 2026-05-06 10:47 | 42.73346 | -95.69660 | 32097 ft | 384 kts | 272° |
| 2026-05-06 10:47 | 42.73928 | -95.76864 | 32103 ft | 384 kts | 272° |
| 2026-05-06 10:48 | 42.74507 | -95.84113 | 32102 ft | 386 kts | 272° |
| 2026-05-06 10:48 | 42.75081 | -95.91328 | 32108 ft | 385 kts | 272° |
| 2026-05-06 10:49 | 42.75651 | -95.98569 | 32093 ft | 385 kts | 272° |
| 2026-05-06 10:49 | 42.76215 | -96.05795 | 32096 ft | 385 kts | 272° |
| 2026-05-06 10:50 | 42.76777 | -96.13052 | 32094 ft | 386 kts | 272° |
| 2026-05-06 10:50 | 42.77336 | -96.20328 | 32100 ft | 387 kts | 272° |
| 2026-05-06 10:51 | 42.77888 | -96.27580 | 32102 ft | 385 kts | 272° |
| 2026-05-06 10:51 | 42.78435 | -96.34833 | 32116 ft | 387 kts | 272° |
| 2026-05-06 10:52 | 42.78978 | -96.42069 | 32097 ft | 385 kts | 272° |
| 2026-05-06 10:52 | 42.79516 | -96.49322 | 32118 ft | 386 kts | 272° |
| 2026-05-06 10:53 | 42.80050 | -96.56585 | 32119 ft | 386 kts | 272° |
| 2026-05-06 10:53 | 42.80584 | -96.63899 | 32125 ft | 388 kts | 272° |
| 2026-05-06 10:54 | 42.81112 | -96.71201 | 32138 ft | 388 kts | 272° |
| 2026-05-06 10:54 | 42.81632 | -96.78462 | 32139 ft | 387 kts | 272° |
| 2026-05-06 10:55 | 42.82155 | -96.85825 | 32130 ft | 388 kts | 272° |
| 2026-05-06 10:55 | 42.82669 | -96.93140 | 32136 ft | 389 kts | 272° |
| 2026-05-06 10:56 | 42.83178 | -97.00441 | 32121 ft | 388 kts | 272° |
| 2026-05-06 10:56 | 42.83683 | -97.07742 | 32139 ft | 389 kts | 272° |
| 2026-05-06 10:57 | 42.84187 | -97.15108 | 32136 ft | 389 kts | 272° |
| 2026-05-06 10:57 | 42.84684 | -97.22459 | 32135 ft | 392 kts | 272° |
| 2026-05-06 10:58 | 42.85177 | -97.29802 | 32140 ft | 391 kts | 272° |
| 2026-05-06 10:58 | 42.85669 | -97.37206 | 32120 ft | 392 kts | 272° |
| 2026-05-06 10:59 | 42.86155 | -97.44592 | 32137 ft | 395 kts | 272° |
| 2026-05-06 10:59 | 42.86638 | -97.52002 | 32124 ft | 393 kts | 272° |
| 2026-05-06 11:00 | 42.87117 | -97.59430 | 32134 ft | 394 kts | 272° |
| 2026-05-06 11:00 | 42.87593 | -97.66903 | 32141 ft | 395 kts | 271° |
| 2026-05-06 11:01 | 42.88063 | -97.74345 | 32141 ft | 396 kts | 271° |
| 2026-05-06 11:01 | 42.88528 | -97.81782 | 32141 ft | 394 kts | 272° |
| 2026-05-06 11:02 | 42.88992 | -97.89276 | 32142 ft | 397 kts | 272° |
| 2026-05-06 11:02 | 42.89450 | -97.96758 | 32142 ft | 397 kts | 272° |
| 2026-05-06 11:03 | 42.89905 | -98.04272 | 32140 ft | 397 kts | 272° |
| 2026-05-06 11:03 | 42.90355 | -98.11793 | 32142 ft | 400 kts | 272° |
| 2026-05-06 11:04 | 42.90800 | -98.19318 | 32138 ft | 399 kts | 272° |
| 2026-05-06 11:04 | 42.91242 | -98.26864 | 32139 ft | 399 kts | 272° |
| 2026-05-06 11:05 | 42.91678 | -98.34404 | 32134 ft | 400 kts | 272° |
| 2026-05-06 11:05 | 42.92111 | -98.41979 | 32144 ft | 402 kts | 272° |
| 2026-05-06 11:06 | 42.92541 | -98.49551 | 32145 ft | 401 kts | 272° |
| 2026-05-06 11:06 | 42.92963 | -98.57126 | 32139 ft | 403 kts | 273° |
| 2026-05-06 11:07 | 42.93385 | -98.64761 | 32136 ft | 404 kts | 272° |
| 2026-05-06 11:07 | 42.93799 | -98.72367 | 32143 ft | 404 kts | 272° |
| 2026-05-06 11:08 | 42.94212 | -98.80033 | 32140 ft | 405 kts | 272° |
| 2026-05-06 11:08 | 42.94617 | -98.87654 | 32134 ft | 405 kts | 272° |
| 2026-05-06 11:09 | 42.95022 | -98.95358 | 32136 ft | 407 kts | 272° |
| 2026-05-06 11:09 | 42.95420 | -99.03027 | 32133 ft | 405 kts | 272° |
| 2026-05-06 11:10 | 42.95813 | -99.10717 | 32131 ft | 408 kts | 272° |
| 2026-05-06 11:10 | 42.96204 | -99.18465 | 32131 ft | 408 kts | 272° |
| 2026-05-06 11:11 | 42.96587 | -99.26143 | 32130 ft | 408 kts | 272° |
| 2026-05-06 11:11 | 42.96968 | -99.33907 | 32128 ft | 410 kts | 272° |
| 2026-05-06 11:12 | 42.97345 | -99.41688 | 32132 ft | 411 kts | 272° |
| 2026-05-06 11:12 | 42.97715 | -99.49417 | 32126 ft | 411 kts | 272° |
| 2026-05-06 11:13 | 42.98081 | -99.57213 | 32127 ft | 414 kts | 273° |
| 2026-05-06 11:13 | 42.98445 | -99.65056 | 32129 ft | 414 kts | 272° |
| 2026-05-06 11:14 | 42.98801 | -99.72836 | 32139 ft | 412 kts | 272° |
| 2026-05-06 11:14 | 42.99155 | -99.80693 | 32140 ft | 415 kts | 272° |
| 2026-05-06 11:15 | 42.99503 | -99.88549 | 32135 ft | 414 kts | 272° |
| 2026-05-06 11:15 | 42.99845 | -99.96378 | 32138 ft | 418 kts | 272° |
| 2026-05-06 11:16 | 43.00182 | -100.04318 | 32138 ft | 417 kts | 272° |
| 2026-05-06 11:16 | 43.00505 | -100.12198 | 32134 ft | 416 kts | 272° |
| 2026-05-06 11:17 | 43.00824 | -100.20071 | 32132 ft | 416 kts | 272° |
| 2026-05-06 11:17 | 43.01137 | -100.27948 | 32135 ft | 418 kts | 272° |
| 2026-05-06 11:18 | 43.01446 | -100.35856 | 32132 ft | 419 kts | 273° |
| 2026-05-06 11:18 | 43.01750 | -100.43778 | 32130 ft | 420 kts | 272° |
| 2026-05-06 11:19 | 43.02051 | -100.51757 | 32128 ft | 420 kts | 273° |
| 2026-05-06 11:19 | 43.02347 | -100.59750 | 32125 ft | 420 kts | 273° |
| 2026-05-06 11:20 | 43.02634 | -100.67685 | 32132 ft | 421 kts | 272° |
| 2026-05-06 11:20 | 43.02919 | -100.75685 | 32131 ft | 423 kts | 272° |
| 2026-05-06 11:21 | 43.03198 | -100.83678 | 32132 ft | 424 kts | 272° |
| 2026-05-06 11:21 | 43.03473 | -100.91709 | 32128 ft | 424 kts | 272° |
| 2026-05-06 11:22 | 43.03743 | -100.99766 | 32129 ft | 424 kts | 272° |
| 2026-05-06 11:22 | 43.04005 | -101.07783 | 32131 ft | 427 kts | 273° |
| 2026-05-06 11:23 | 43.04267 | -101.15932 | 32128 ft | 426 kts | 272° |
| 2026-05-06 11:23 | 43.04519 | -101.23961 | 32131 ft | 428 kts | 273° |
| 2026-05-06 11:24 | 43.04769 | -101.32123 | 32137 ft | 428 kts | 273° |
| 2026-05-06 11:24 | 43.05013 | -101.40239 | 32142 ft | 429 kts | 273° |
| 2026-05-06 11:25 | 43.05251 | -101.48398 | 32140 ft | 430 kts | 273° |
| 2026-05-06 11:25 | 43.05484 | -101.56563 | 32136 ft | 431 kts | 273° |
| 2026-05-06 11:26 | 43.05711 | -101.64721 | 32138 ft | 431 kts | 273° |
| 2026-05-06 11:26 | 43.05933 | -101.72899 | 32147 ft | 433 kts | 272° |
| 2026-05-06 11:27 | 43.06150 | -101.81113 | 32141 ft | 432 kts | 272° |
| 2026-05-06 11:27 | 43.06359 | -101.89300 | 32146 ft | 433 kts | 272° |
| 2026-05-06 11:28 | 43.06565 | -101.97525 | 32139 ft | 435 kts | 273° |
| 2026-05-06 11:28 | 43.06765 | -102.05785 | 32134 ft | 434 kts | 273° |
| 2026-05-06 11:29 | 43.06960 | -102.14048 | 32136 ft | 437 kts | 273° |
| 2026-05-06 11:29 | 43.07149 | -102.22321 | 32133 ft | 436 kts | 273° |
| 2026-05-06 11:30 | 43.07330 | -102.30578 | 32139 ft | 438 kts | 273° |
| 2026-05-06 11:30 | 43.07509 | -102.38902 | 32144 ft | 437 kts | 273° |
| 2026-05-06 11:31 | 43.07680 | -102.47234 | 32156 ft | 439 kts | 273° |
| 2026-05-06 11:31 | 43.07847 | -102.55602 | 32144 ft | 440 kts | 273° |
| 2026-05-06 11:32 | 43.08006 | -102.63911 | 32149 ft | 439 kts | 273° |
| 2026-05-06 11:32 | 43.08160 | -102.72264 | 32154 ft | 442 kts | 273° |
| 2026-05-06 11:33 | 43.08309 | -102.80656 | 32158 ft | 442 kts | 273° |
| 2026-05-06 11:33 | 43.08451 | -102.89017 | 32155 ft | 444 kts | 273° |
| 2026-05-06 11:34 | 43.08589 | -102.97491 | 32146 ft | 443 kts | 273° |
| 2026-05-06 11:34 | 43.08719 | -103.05868 | 32144 ft | 444 kts | 272° |
| 2026-05-06 11:35 | 43.08844 | -103.14347 | 32141 ft | 444 kts | 273° |
| 2026-05-06 11:35 | 43.08962 | -103.22755 | 32146 ft | 446 kts | 273° |
| 2026-05-06 11:36 | 43.09076 | -103.31274 | 32146 ft | 446 kts | 273° |
| 2026-05-06 11:36 | 43.09181 | -103.39705 | 32155 ft | 447 kts | 273° |
| 2026-05-06 11:37 | 43.09283 | -103.48248 | 32150 ft | 447 kts | 273° |
| 2026-05-06 11:37 | 43.09376 | -103.56719 | 32152 ft | 448 kts | 273° |
| 2026-05-06 11:38 | 43.09465 | -103.65250 | 32156 ft | 449 kts | 272° |
| 2026-05-06 11:38 | 43.09547 | -103.73850 | 32165 ft | 452 kts | 272° |
| 2026-05-06 11:39 | 43.09624 | -103.82401 | 32163 ft | 451 kts | 272° |
| 2026-05-06 11:39 | 43.09693 | -103.90951 | 32168 ft | 452 kts | 272° |
| 2026-05-06 11:40 | 43.09756 | -103.99531 | 32170 ft | 452 kts | 272° |
| 2026-05-06 11:40 | 43.09813 | -104.08129 | 32166 ft | 452 kts | 272° |
| 2026-05-06 11:41 | 43.09862 | -104.16739 | 32162 ft | 453 kts | 273° |
| 2026-05-06 11:41 | 43.09907 | -104.25319 | 32151 ft | 454 kts | 273° |
| 2026-05-06 11:42 | 43.09945 | -104.33962 | 32159 ft | 455 kts | 273° |
| 2026-05-06 11:42 | 43.09976 | -104.42601 | 32162 ft | 456 kts | 273° |
| 2026-05-06 11:43 | 43.10001 | -104.51251 | 32163 ft | 456 kts | 273° |
| 2026-05-06 11:43 | 43.10019 | -104.59924 | 32168 ft | 457 kts | 273° |
| 2026-05-06 11:44 | 43.10035 | -104.72967 | 32162 ft | 457 kts | 272° |
| 2026-05-06 11:44 | 43.10036 | -104.81677 | 32171 ft | 459 kts | 272° |
| 2026-05-06 11:45 | 43.10032 | -104.90391 | 32164 ft | 459 kts | 272° |
| 2026-05-06 11:45 | 43.10020 | -104.99152 | 32157 ft | 460 kts | 272° |
| 2026-05-06 11:46 | 43.10003 | -105.07845 | 32169 ft | 460 kts | 272° |
| 2026-05-06 11:46 | 43.09977 | -105.16600 | 32167 ft | 460 kts | 273° |
| 2026-05-06 11:47 | 43.09946 | -105.25323 | 32167 ft | 461 kts | 273° |
| 2026-05-06 11:47 | 43.09908 | -105.34128 | 32165 ft | 461 kts | 273° |
| 2026-05-06 11:48 | 43.09863 | -105.42864 | 32163 ft | 461 kts | 273° |
| 2026-05-06 11:48 | 43.09813 | -105.51612 | 32162 ft | 462 kts | 273° |
| 2026-05-06 11:49 | 43.09755 | -105.60362 | 32158 ft | 462 kts | 273° |
| 2026-05-06 11:49 | 43.09689 | -105.69123 | 32156 ft | 462 kts | 272° |
| 2026-05-06 11:50 | 43.09618 | -105.77939 | 32162 ft | 463 kts | 272° |
| 2026-05-06 11:50 | 43.09539 | -105.86678 | 32165 ft | 464 kts | 273° |
| 2026-05-06 11:51 | 43.09454 | -105.95480 | 32155 ft | 464 kts | 273° |
| 2026-05-06 11:51 | 43.09362 | -106.04307 | 32146 ft | 465 kts | 273° |
| 2026-05-06 11:52 | 43.09263 | -106.13113 | 32154 ft | 464 kts | 273° |
| 2026-05-06 11:52 | 43.09158 | -106.21911 | 32161 ft | 465 kts | 274° |
| 2026-05-06 11:53 | 43.08622 | -106.30675 | 32172 ft | 466 kts | 266° |
| 2026-05-06 11:53 | 43.07671 | -106.39459 | 32173 ft | 466 kts | 266° |
| 2026-05-06 11:54 | 43.06680 | -106.48153 | 32178 ft | 467 kts | 266° |
| 2026-05-06 11:54 | 43.05654 | -106.56950 | 32175 ft | 469 kts | 266° |
| 2026-05-06 11:55 | 43.04615 | -106.65733 | 32176 ft | 469 kts | 266° |
| 2026-05-06 11:55 | 43.03563 | -106.74555 | 32163 ft | 471 kts | 266° |
| 2026-05-06 11:56 | 43.02509 | -106.83318 | 32158 ft | 470 kts | 266° |
| 2026-05-06 11:56 | 43.01442 | -106.92123 | 32156 ft | 470 kts | 266° |
| 2026-05-06 11:57 | 43.00370 | -107.00916 | 32151 ft | 471 kts | 266° |
| 2026-05-06 11:57 | 42.99286 | -107.09758 | 32139 ft | 474 kts | 266° |
| 2026-05-06 11:58 | 42.98189 | -107.18631 | 32129 ft | 474 kts | 267° |
| 2026-05-06 11:58 | 42.97091 | -107.27456 | 32122 ft | 476 kts | 268° |
| 2026-05-06 11:59 | 42.95972 | -107.36401 | 32116 ft | 479 kts | 268° |
| 2026-05-06 11:59 | 42.94849 | -107.45308 | 32114 ft | 477 kts | 268° |
| 2026-05-06 12:00 | 42.93726 | -107.54165 | 32119 ft | 475 kts | 268° |
| 2026-05-06 12:00 | 42.92591 | -107.63054 | 32146 ft | 477 kts | 269° |
| 2026-05-06 12:01 | 42.91441 | -107.72012 | 32122 ft | 480 kts | 268° |
| 2026-05-06 12:01 | 42.90289 | -107.80912 | 32121 ft | 481 kts | 269° |
| 2026-05-06 12:02 | 42.89115 | -107.89956 | 32114 ft | 482 kts | 268° |
| 2026-05-06 12:02 | 42.87943 | -107.98887 | 32133 ft | 483 kts | 269° |
| 2026-05-06 12:03 | 42.86758 | -108.07890 | 32149 ft | 485 kts | 269° |
| 2026-05-06 12:03 | 42.85558 | -108.16917 | 32165 ft | 482 kts | 269° |
| 2026-05-06 12:04 | 42.84356 | -108.25961 | 32180 ft | 490 kts | 269° |
| 2026-05-06 12:04 | 42.83139 | -108.34994 | 32187 ft | 485 kts | 269° |
| 2026-05-06 12:05 | 42.81923 | -108.43992 | 32183 ft | 484 kts | 269° |
| 2026-05-06 12:05 | 42.80687 | -108.53106 | 32198 ft | 490 kts | 270° |
| 2026-05-06 12:06 | 42.79451 | -108.62106 | 32173 ft | 484 kts | 270° |
| 2026-05-06 12:06 | 42.78208 | -108.71174 | 32172 ft | 492 kts | 270° |
| 2026-05-06 12:07 | 42.76944 | -108.80282 | 32163 ft | 492 kts | 270° |
| 2026-05-06 12:07 | 42.75665 | -108.89447 | 32141 ft | 490 kts | 270° |
| 2026-05-06 12:08 | 42.74400 | -108.98476 | 32131 ft | 487 kts | 270° |
| 2026-05-06 12:08 | 42.73124 | -109.07539 | 32108 ft | 492 kts | 270° |
| 2026-05-06 12:09 | 42.71830 | -109.16631 | 32091 ft | 488 kts | 271° |
| 2026-05-06 12:09 | 42.70543 | -109.25667 | 32089 ft | 490 kts | 270° |
| 2026-05-06 12:10 | 42.69234 | -109.34789 | 32096 ft | 493 kts | 270° |
| 2026-05-06 12:10 | 42.67925 | -109.43834 | 32118 ft | 488 kts | 270° |
| 2026-05-06 12:11 | 42.66613 | -109.52857 | 32144 ft | 488 kts | 270° |
| 2026-05-06 12:11 | 42.65294 | -109.61912 | 32147 ft | 493 kts | 270° |
| 2026-05-06 12:12 | 42.63963 | -109.70945 | 32163 ft | 490 kts | 270° |
| 2026-05-06 12:12 | 42.62620 | -109.80026 | 32152 ft | 488 kts | 270° |
| 2026-05-06 12:13 | 42.61283 | -109.89024 | 32161 ft | 488 kts | 270° |
| 2026-05-06 12:13 | 42.59939 | -109.98022 | 32174 ft | 492 kts | 270° |
| 2026-05-06 12:14 | 42.58574 | -110.07088 | 32152 ft | 490 kts | 270° |
| 2026-05-06 12:14 | 42.57216 | -110.16056 | 32155 ft | 485 kts | 270° |
| 2026-05-06 12:15 | 42.55854 | -110.25030 | 32151 ft | 487 kts | 270° |
| 2026-05-06 12:15 | 42.54488 | -110.33948 | 32124 ft | 485 kts | 270° |
| 2026-05-06 12:16 | 42.53108 | -110.42938 | 32092 ft | 486 kts | 270° |
| 2026-05-06 12:16 | 42.51723 | -110.51891 | 32084 ft | 488 kts | 269° |
| 2026-05-06 12:17 | 42.50328 | -110.60859 | 32086 ft | 489 kts | 269° |
| 2026-05-06 12:17 | 42.48927 | -110.69820 | 32084 ft | 488 kts | 269° |
| 2026-05-06 12:18 | 42.47514 | -110.78806 | 32080 ft | 487 kts | 269° |
| 2026-05-06 12:18 | 42.46089 | -110.87851 | 32094 ft | 494 kts | 269° |
| 2026-05-06 12:19 | 42.44658 | -110.96832 | 32099 ft | 490 kts | 269° |
| 2026-05-06 12:19 | 42.43226 | -111.05803 | 32098 ft | 490 kts | 269° |
| 2026-05-06 12:20 | 42.41781 | -111.14800 | 32087 ft | 489 kts | 269° |
| 2026-05-06 12:20 | 42.40337 | -111.23749 | 32095 ft | 490 kts | 268° |
| 2026-05-06 12:21 | 42.38876 | -111.32744 | 32112 ft | 488 kts | 268° |
| 2026-05-06 12:21 | 42.37421 | -111.41664 | 32123 ft | 488 kts | 269° |
| 2026-05-06 12:22 | 42.35948 | -111.50642 | 32122 ft | 487 kts | 268° |
| 2026-05-06 12:22 | 42.34494 | -111.59468 | 32127 ft | 487 kts | 268° |
| 2026-05-06 12:23 | 42.33001 | -111.68489 | 32149 ft | 492 kts | 268° |
| 2026-05-06 12:23 | 42.31509 | -111.77421 | 32168 ft | 486 kts | 267° |
| 2026-05-06 12:24 | 42.30053 | -111.86134 | 32164 ft | 490 kts | 267° |
| 2026-05-06 12:24 | 42.28547 | -111.95072 | 32163 ft | 489 kts | 267° |
| 2026-05-06 12:25 | 42.27038 | -112.04002 | 32174 ft | 490 kts | 267° |
| 2026-05-06 12:25 | 42.25516 | -112.12946 | 32169 ft | 487 kts | 267° |
| 2026-05-06 12:26 | 42.24005 | -112.21796 | 32163 ft | 487 kts | 267° |
| 2026-05-06 12:26 | 42.22472 | -112.30731 | 32157 ft | 488 kts | 267° |
| 2026-05-06 12:27 | 42.20945 | -112.39579 | 32160 ft | 487 kts | 267° |
| 2026-05-06 12:27 | 42.19002 | -112.48337 | 32141 ft | 491 kts | 260° |
| 2026-05-06 12:28 | 42.16722 | -112.56932 | 32155 ft | 490 kts | 260° |
| 2026-05-06 12:28 | 42.14389 | -112.65532 | 32154 ft | 492 kts | 258° |
| 2026-05-06 12:29 | 42.12000 | -112.74246 | 32156 ft | 492 kts | 259° |
| 2026-05-06 12:29 | 42.09638 | -112.82810 | 32146 ft | 491 kts | 258° |
| 2026-05-06 12:30 | 42.07266 | -112.91377 | 32144 ft | 492 kts | 258° |
| 2026-05-06 12:30 | 42.04880 | -112.99959 | 32153 ft | 490 kts | 258° |
| 2026-05-06 12:31 | 42.02490 | -113.08530 | 32151 ft | 490 kts | 258° |
| 2026-05-06 12:31 | 42.00088 | -113.17114 | 32150 ft | 491 kts | 258° |
| 2026-05-06 12:32 | 41.97699 | -113.25623 | 32156 ft | 491 kts | 258° |
| 2026-05-06 12:32 | 41.95281 | -113.34201 | 32154 ft | 491 kts | 258° |
| 2026-05-06 12:33 | 41.92863 | -113.42749 | 32160 ft | 488 kts | 258° |
| 2026-05-06 12:33 | 41.90448 | -113.51271 | 32167 ft | 491 kts | 258° |
| 2026-05-06 12:34 | 41.88024 | -113.59784 | 32148 ft | 489 kts | 258° |
| 2026-05-06 12:34 | 41.85593 | -113.68295 | 32134 ft | 491 kts | 257° |
| 2026-05-06 12:35 | 41.83137 | -113.76868 | 32139 ft | 491 kts | 257° |
| 2026-05-06 12:35 | 41.80687 | -113.85390 | 32145 ft | 493 kts | 257° |
| 2026-05-06 12:36 | 41.78217 | -113.93948 | 32142 ft | 492 kts | 257° |
| 2026-05-06 12:36 | 41.75756 | -114.02447 | 32145 ft | 490 kts | 257° |
| 2026-05-06 12:37 | 41.73286 | -114.10961 | 32136 ft | 493 kts | 257° |
| 2026-05-06 12:37 | 41.70803 | -114.19479 | 32147 ft | 492 kts | 257° |
| 2026-05-06 12:38 | 41.68310 | -114.28006 | 32153 ft | 492 kts | 257° |
| 2026-05-06 12:38 | 41.65817 | -114.36506 | 32150 ft | 492 kts | 257° |
| 2026-05-06 12:39 | 41.63315 | -114.45010 | 32152 ft | 491 kts | 256° |
| 2026-05-06 12:39 | 41.60801 | -114.53526 | 32153 ft | 492 kts | 256° |
| 2026-05-06 12:40 | 41.58288 | -114.62009 | 32153 ft | 491 kts | 256° |
| 2026-05-06 12:40 | 41.55776 | -114.70468 | 32155 ft | 492 kts | 255° |
| 2026-05-06 12:41 | 41.53245 | -114.78954 | 32156 ft | 493 kts | 256° |
| 2026-05-06 12:41 | 41.50724 | -114.87382 | 32154 ft | 492 kts | 255° |
| 2026-05-06 12:42 | 41.48173 | -114.95885 | 32164 ft | 493 kts | 256° |
| 2026-05-06 12:42 | 41.45629 | -115.04336 | 32165 ft | 492 kts | 255° |
| 2026-05-06 12:43 | 41.43099 | -115.12713 | 32159 ft | 492 kts | 255° |
| 2026-05-06 12:43 | 41.40536 | -115.21175 | 32167 ft | 492 kts | 255° |
| 2026-05-06 12:44 | 41.37967 | -115.29625 | 32177 ft | 492 kts | 255° |
| 2026-05-06 12:44 | 41.35414 | -115.37997 | 32174 ft | 490 kts | 255° |
| 2026-05-06 12:45 | 41.32840 | -115.46416 | 32178 ft | 491 kts | 255° |
| 2026-05-06 12:46 | 41.28978 | -115.58996 | 32175 ft | 493 kts | 255° |
| 2026-05-06 12:46 | 41.26384 | -115.67406 | 32174 ft | 491 kts | 254° |
| 2026-05-06 12:47 | 41.23783 | -115.75820 | 32178 ft | 493 kts | 254° |
| 2026-05-06 12:47 | 41.21190 | -115.84174 | 32171 ft | 490 kts | 254° |
| 2026-05-06 12:48 | 41.18578 | -115.92564 | 32170 ft | 490 kts | 254° |
| 2026-05-06 12:48 | 41.15963 | -116.00948 | 32179 ft | 492 kts | 254° |
| 2026-05-06 12:49 | 41.13350 | -116.09290 | 32178 ft | 490 kts | 254° |
| 2026-05-06 12:49 | 41.10740 | -116.17596 | 32181 ft | 491 kts | 254° |
| 2026-05-06 12:50 | 41.08112 | -116.25938 | 32186 ft | 490 kts | 254° |
| 2026-05-06 12:50 | 41.05485 | -116.34249 | 32191 ft | 489 kts | 254° |
| 2026-05-06 12:51 | 41.02867 | -116.42509 | 32203 ft | 490 kts | 254° |
| 2026-05-06 12:51 | 41.00238 | -116.50776 | 32203 ft | 488 kts | 254° |
| 2026-05-06 12:52 | 40.97592 | -116.59071 | 32202 ft | 490 kts | 254° |
| 2026-05-06 12:52 | 40.94952 | -116.67324 | 32202 ft | 490 kts | 253° |
| 2026-05-06 12:53 | 40.92275 | -116.75667 | 32199 ft | 491 kts | 253° |
| 2026-05-06 12:53 | 40.89600 | -116.83972 | 32193 ft | 489 kts | 253° |
| 2026-05-06 12:54 | 40.86941 | -116.92210 | 32175 ft | 489 kts | 253° |
| 2026-05-06 12:54 | 40.84268 | -117.00466 | 32176 ft | 489 kts | 253° |
| 2026-05-06 12:55 | 40.81590 | -117.08709 | 32175 ft | 490 kts | 253° |
| 2026-05-06 12:55 | 40.78918 | -117.16911 | 32178 ft | 489 kts | 252° |
| 2026-05-06 12:56 | 40.76233 | -117.25128 | 32187 ft | 490 kts | 252° |
| 2026-05-06 12:56 | 40.73540 | -117.33343 | 32187 ft | 488 kts | 252° |
| 2026-05-06 12:57 | 40.70832 | -117.41584 | 32191 ft | 489 kts | 252° |
| 2026-05-06 12:57 | 40.68125 | -117.49794 | 32195 ft | 488 kts | 252° |
| 2026-05-06 12:58 | 40.65417 | -117.57983 | 32205 ft | 488 kts | 252° |
| 2026-05-06 12:58 | 40.62711 | -117.66144 | 32208 ft | 489 kts | 251° |
| 2026-05-06 12:59 | 40.59981 | -117.74353 | 32212 ft | 489 kts | 251° |
| 2026-05-06 12:59 | 40.57266 | -117.82488 | 32210 ft | 487 kts | 251° |
| 2026-05-06 13:00 | 40.54540 | -117.90638 | 32211 ft | 488 kts | 251° |
| 2026-05-06 13:00 | 40.51803 | -117.98795 | 32197 ft | 487 kts | 251° |
| 2026-05-06 13:01 | 40.49070 | -118.06914 | 32194 ft | 487 kts | 251° |
| 2026-05-06 13:01 | 40.46334 | -118.15023 | 32200 ft | 488 kts | 251° |
| 2026-05-06 13:02 | 40.43599 | -118.23103 | 32204 ft | 487 kts | 251° |
| 2026-05-06 13:02 | 40.40844 | -118.31220 | 32209 ft | 487 kts | 251° |
| 2026-05-06 13:03 | 40.37954 | -118.39269 | 32206 ft | 487 kts | 247° |
| 2026-05-06 13:03 | 40.34837 | -118.47041 | 32200 ft | 483 kts | 247° |
| 2026-05-06 13:04 | 40.31694 | -118.54840 | 32197 ft | 485 kts | 247° |
| 2026-05-06 13:04 | 40.28540 | -118.62629 | 32209 ft | 484 kts | 247° |
| 2026-05-06 13:05 | 40.25386 | -118.70397 | 32223 ft | 484 kts | 246° |
| 2026-05-06 13:05 | 40.22237 | -118.78131 | 32230 ft | 483 kts | 246° |
| 2026-05-06 13:06 | 40.19088 | -118.85844 | 32224 ft | 483 kts | 246° |
| 2026-05-06 13:06 | 40.15912 | -118.93603 | 32220 ft | 483 kts | 246° |
| 2026-05-06 13:07 | 40.12738 | -119.01340 | 32218 ft | 484 kts | 245° |
| 2026-05-06 13:07 | 40.09562 | -119.09055 | 32228 ft | 483 kts | 245° |
| 2026-05-06 13:08 | 40.06382 | -119.16765 | 32233 ft | 482 kts | 245° |
| 2026-05-06 13:08 | 40.03195 | -119.24473 | 32248 ft | 483 kts | 245° |
| 2026-05-06 13:09 | 40.00011 | -119.32151 | 32243 ft | 483 kts | 245° |
| 2026-05-06 13:09 | 39.96806 | -119.39861 | 32234 ft | 482 kts | 245° |
| 2026-05-06 13:10 | 39.93882 | -119.47663 | 32229 ft | 482 kts | 249° |
| 2026-05-06 13:10 | 39.91034 | -119.55542 | 32234 ft | 481 kts | 249° |
| 2026-05-06 13:11 | 39.88168 | -119.63438 | 32237 ft | 481 kts | 249° |
| 2026-05-06 13:11 | 39.85322 | -119.71252 | 32243 ft | 481 kts | 248° |
| 2026-05-06 13:12 | 39.82436 | -119.79151 | 32229 ft | 482 kts | 248° |
| 2026-05-06 13:12 | 39.79557 | -119.87010 | 32202 ft | 481 kts | 248° |
| 2026-05-06 13:13 | 39.76685 | -119.94827 | 32189 ft | 483 kts | 248° |
| 2026-05-06 13:13 | 39.73798 | -120.02666 | 32210 ft | 481 kts | 248° |
| 2026-05-06 13:14 | 39.70908 | -120.10491 | 32229 ft | 480 kts | 248° |
| 2026-05-06 13:14 | 39.68029 | -120.18269 | 32247 ft | 481 kts | 248° |
| 2026-05-06 13:15 | 39.65127 | -120.26085 | 32265 ft | 481 kts | 248° |
| 2026-05-06 13:15 | 39.62226 | -120.33879 | 32283 ft | 482 kts | 248° |
| 2026-05-06 13:16 | 39.59299 | -120.41723 | 32286 ft | 482 kts | 248° |
| 2026-05-06 13:16 | 39.56381 | -120.49521 | 32303 ft | 482 kts | 248° |
| 2026-05-06 13:17 | 39.53466 | -120.57291 | 32309 ft | 481 kts | 248° |
| 2026-05-06 13:17 | 39.50549 | -120.65047 | 32309 ft | 482 kts | 247° |
| 2026-05-06 13:18 | 39.47603 | -120.72857 | 32287 ft | 482 kts | 247° |
| 2026-05-06 13:18 | 39.44671 | -120.80612 | 32271 ft | 482 kts | 247° |
| 2026-05-06 13:19 | 39.41729 | -120.88371 | 32233 ft | 483 kts | 247° |
| 2026-05-06 13:19 | 39.38784 | -120.96117 | 32205 ft | 482 kts | 247° |
| 2026-05-06 13:20 | 39.35833 | -121.03863 | 32197 ft | 481 kts | 247° |
| 2026-05-06 13:20 | 39.32494 | -121.11382 | 32211 ft | 485 kts | 236° |
| 2026-05-06 13:21 | 39.28507 | -121.18375 | 32197 ft | 485 kts | 236° |
| 2026-05-06 13:21 | 39.24500 | -121.25324 | 32191 ft | 486 kts | 236° |
| 2026-05-06 13:22 | 39.20439 | -121.32318 | 32189 ft | 486 kts | 236° |
| 2026-05-06 13:22 | 39.16403 | -121.39243 | 32188 ft | 485 kts | 236° |
| 2026-05-06 13:23 | 39.12367 | -121.46150 | 32193 ft | 484 kts | 236° |
| 2026-05-06 13:23 | 39.08321 | -121.53059 | 32193 ft | 485 kts | 236° |
| 2026-05-06 13:24 | 39.04251 | -121.59991 | 32189 ft | 485 kts | 236° |
| 2026-05-06 13:24 | 39.00196 | -121.66884 | 32185 ft | 485 kts | 235° |
| 2026-05-06 13:25 | 38.96132 | -121.73777 | 32178 ft | 484 kts | 235° |
| 2026-05-06 13:25 | 38.92086 | -121.80624 | 32178 ft | 483 kts | 235° |
| 2026-05-06 13:26 | 38.88007 | -121.87515 | 32167 ft | 484 kts | 235° |
| 2026-05-06 13:26 | 38.83924 | -121.94396 | 32162 ft | 483 kts | 235° |
| 2026-05-06 13:27 | 38.79850 | -122.01249 | 32161 ft | 485 kts | 234° |
| 2026-05-06 13:27 | 38.75763 | -122.08106 | 31499 ft | 491 kts | 234° |
| 2026-05-06 13:27 | 38.73702 | -122.11558 | 30930 ft | 484 kts | 234° |
| 2026-05-06 13:28 | 38.71661 | -122.14973 | 30371 ft | 476 kts | 234° |
| 2026-05-06 13:28 | 38.69663 | -122.18314 | 29840 ft | 472 kts | 234° |
| 2026-05-06 13:28 | 38.67686 | -122.21616 | 29293 ft | 473 kts | 234° |
| 2026-05-06 13:28 | 38.65689 | -122.24949 | 28713 ft | 472 kts | 234° |
| 2026-05-06 13:29 | 38.63712 | -122.28245 | 28112 ft | 469 kts | 234° |
| 2026-05-06 13:29 | 38.61733 | -122.31539 | 27538 ft | 463 kts | 234° |
| 2026-05-06 13:29 | 38.59798 | -122.34758 | 27042 ft | 457 kts | 234° |
| 2026-05-06 13:29 | 38.57864 | -122.37973 | 26595 ft | 455 kts | 234° |
| 2026-05-06 13:30 | 38.55939 | -122.41167 | 26027 ft | 458 kts | 233° |
| 2026-05-06 13:30 | 38.53802 | -122.44138 | 25846 ft | 445 kts | 224° |
| 2026-05-06 13:30 | 38.51479 | -122.46704 | 25268 ft | 438 kts | 221° |
| 2026-05-06 13:30 | 38.49172 | -122.49159 | 24739 ft | 431 kts | 221° |
| 2026-05-06 13:31 | 38.46884 | -122.51567 | 24230 ft | 426 kts | 221° |
| 2026-05-06 13:31 | 38.44603 | -122.53945 | 23741 ft | 425 kts | 220° |
| 2026-05-06 13:31 | 38.42311 | -122.56323 | 23253 ft | 425 kts | 220° |
| 2026-05-06 13:31 | 38.40020 | -122.58691 | 22771 ft | 422 kts | 220° |
| 2026-05-06 13:32 | 38.37747 | -122.61036 | 22290 ft | 418 kts | 220° |
| 2026-05-06 13:32 | 38.35516 | -122.63334 | 21816 ft | 414 kts | 220° |
| 2026-05-06 13:32 | 38.33273 | -122.65641 | 21340 ft | 411 kts | 219° |
| 2026-05-06 13:32 | 38.31074 | -122.67900 | 20871 ft | 409 kts | 219° |
| 2026-05-06 13:33 | 38.28857 | -122.70177 | 20399 ft | 408 kts | 219° |
| 2026-05-06 13:33 | 38.26657 | -122.72421 | 19928 ft | 404 kts | 217° |
| 2026-05-06 13:33 | 38.24228 | -122.74245 | 19477 ft | 401 kts | 201° |
| 2026-05-06 13:33 | 38.21584 | -122.75200 | 19047 ft | 398 kts | 186° |
| 2026-05-06 13:34 | 38.18843 | -122.75269 | 18588 ft | 393 kts | 171° |
| 2026-05-06 13:34 | 38.16154 | -122.74691 | 18116 ft | 390 kts | 166° |
| 2026-05-06 13:34 | 38.13511 | -122.74026 | 17990 ft | 378 kts | 166° |
| 2026-05-06 13:34 | 38.10939 | -122.73338 | 17989 ft | 382 kts | 165° |
| 2026-05-06 13:35 | 38.08322 | -122.72608 | 17996 ft | 388 kts | 165° |
| 2026-05-06 13:35 | 38.05656 | -122.71841 | 17998 ft | 399 kts | 165° |
| 2026-05-06 13:35 | 38.02914 | -122.71052 | 17478 ft | 398 kts | 165° |
| 2026-05-06 13:35 | 38.00293 | -122.70303 | 16948 ft | 379 kts | 165° |
| 2026-05-06 13:36 | 37.97778 | -122.69580 | 15902 ft | 376 kts | 165° |
| 2026-05-06 13:36 | 37.95243 | -122.68850 | 14962 ft | 367 kts | 165° |
| 2026-05-06 13:36 | 37.92783 | -122.68143 | 14052 ft | 358 kts | 165° |
| 2026-05-06 13:36 | 37.90502 | -122.67235 | 13404 ft | 341 kts | 150° |
| 2026-05-06 13:37 | 37.88524 | -122.65584 | 13025 ft | 341 kts | 139° |
| 2026-05-06 13:37 | 37.86640 | -122.63677 | 12758 ft | 350 kts | 139° |
| 2026-05-06 13:37 | 37.84740 | -122.61735 | 12377 ft | 348 kts | 138° |
| 2026-05-06 13:37 | 37.82886 | -122.59807 | 11982 ft | 343 kts | 138° |
| 2026-05-06 13:38 | 37.81076 | -122.57909 | 11676 ft | 342 kts | 137° |
| 2026-05-06 13:38 | 37.79240 | -122.55977 | 11403 ft | 342 kts | 137° |
| 2026-05-06 13:38 | 37.77434 | -122.54073 | 11153 ft | 324 kts | 137° |
| 2026-05-06 13:38 | 37.75781 | -122.52331 | 11129 ft | 296 kts | 137° |
| 2026-05-06 13:39 | 37.74195 | -122.50652 | 11161 ft | 303 kts | 137° |
| 2026-05-06 13:39 | 37.72571 | -122.48929 | 11154 ft | 307 kts | 137° |
| 2026-05-06 13:39 | 37.70944 | -122.47196 | 11152 ft | 305 kts | 137° |
| 2026-05-06 13:39 | 37.69319 | -122.45467 | 11213 ft | 310 kts | 137° |
| 2026-05-06 13:40 | 37.67665 | -122.43709 | 11148 ft | 306 kts | 137° |
| 2026-05-06 13:40 | 37.66056 | -122.42001 | 11151 ft | 301 kts | 137° |
| 2026-05-06 13:40 | 37.64436 | -122.40279 | 11159 ft | 304 kts | 137° |
| 2026-05-06 13:40 | 37.62817 | -122.38561 | 11153 ft | 305 kts | 137° |
| 2026-05-06 13:41 | 37.61269 | -122.36725 | 11150 ft | 301 kts | 123° |
| 2026-05-06 13:41 | 37.60334 | -122.34393 | 11005 ft | 300 kts | 105° |
| 2026-05-06 13:41 | 37.59729 | -122.31915 | 10790 ft | 298 kts | 104° |
| 2026-05-06 13:41 | 37.59112 | -122.29417 | 10560 ft | 293 kts | 104° |
| 2026-05-06 13:42 | 37.58529 | -122.27013 | 10347 ft | 288 kts | 104° |
| 2026-05-06 13:42 | 37.57952 | -122.24617 | 10137 ft | 280 kts | 104° |
| 2026-05-06 13:42 | 37.57400 | -122.22307 | 9942 ft | 277 kts | 104° |
| 2026-05-06 13:42 | 37.56839 | -122.19953 | 9755 ft | 279 kts | 104° |
| 2026-05-06 13:43 | 37.56283 | -122.17622 | 9570 ft | 279 kts | 104° |
| 2026-05-06 13:43 | 37.55724 | -122.15282 | 9379 ft | 277 kts | 104° |
| 2026-05-06 13:43 | 37.55168 | -122.12955 | 9186 ft | 277 kts | 103° |
| 2026-05-06 13:43 | 37.54618 | -122.10647 | 8994 ft | 277 kts | 103° |
| 2026-05-06 13:44 | 37.54060 | -122.08313 | 8755 ft | 277 kts | 103° |
| 2026-05-06 13:44 | 37.53511 | -122.06021 | 8526 ft | 275 kts | 103° |
| 2026-05-06 13:44 | 37.52961 | -122.03720 | 8309 ft | 273 kts | 103° |
| 2026-05-06 13:44 | 37.52409 | -122.01421 | 8102 ft | 273 kts | 103° |
| 2026-05-06 13:45 | 37.51861 | -121.99132 | 7905 ft | 272 kts | 103° |
| 2026-05-06 13:45 | 37.50770 | -121.94593 | 7517 ft | 270 kts | 103° |
| 2026-05-06 13:45 | 37.50236 | -121.92349 | 7300 ft | 270 kts | 99° |
| 2026-05-06 13:46 | 37.49829 | -121.90012 | 6868 ft | 273 kts | 107° |
| 2026-05-06 13:46 | 37.48784 | -121.88060 | 6734 ft | 270 kts | 137° |
| 2026-05-06 13:46 | 37.47110 | -121.86983 | 6732 ft | 280 kts | 167° |
| 2026-05-06 13:46 | 37.45147 | -121.86993 | 6741 ft | 287 kts | 196° |
| 2026-05-06 13:47 | 37.43395 | -121.88106 | 6731 ft | 284 kts | 224° |
| 2026-05-06 13:47 | 37.42249 | -121.90072 | 6691 ft | 275 kts | 253° |
| 2026-05-06 13:47 | 37.41945 | -121.92380 | 6614 ft | 265 kts | 284° |
| 2026-05-06 13:47 | 37.42651 | -121.94422 | 6521 ft | 256 kts | 309° |
| 2026-05-06 13:48 | 37.43703 | -121.96242 | 6324 ft | 257 kts | 308° |
| 2026-05-06 13:48 | 37.44686 | -121.98108 | 6135 ft | 256 kts | 306° |
| 2026-05-06 13:48 | 37.45641 | -122.00012 | 5845 ft | 259 kts | 304° |
| 2026-05-06 13:48 | 37.46576 | -122.01961 | 5592 ft | 260 kts | 304° |
| 2026-05-06 13:49 | 37.47487 | -122.03921 | 5218 ft | 261 kts | 303° |
| 2026-05-06 13:49 | 37.48370 | -122.05876 | 4965 ft | 247 kts | 302° |
| 2026-05-06 13:49 | 37.49192 | -122.07730 | 4660 ft | 240 kts | 302° |
| 2026-05-06 13:49 | 37.49990 | -122.09549 | 4322 ft | 235 kts | 301° |
| 2026-05-06 13:50 | 37.50758 | -122.11317 | 4039 ft | 228 kts | 301° |
| 2026-05-06 13:50 | 37.51510 | -122.13060 | 3749 ft | 224 kts | 300° |
| 2026-05-06 13:50 | 37.52234 | -122.14749 | 3475 ft | 219 kts | 300° |
| 2026-05-06 13:50 | 37.52953 | -122.16431 | 3198 ft | 214 kts | 300° |
| 2026-05-06 13:51 | 37.53646 | -122.18058 | 2977 ft | 208 kts | 300° |
| 2026-05-06 13:51 | 37.54319 | -122.19647 | 2752 ft | 203 kts | 300° |
| 2026-05-06 13:51 | 37.54965 | -122.21175 | 2515 ft | 190 kts | 300° |
| 2026-05-06 13:51 | 37.55564 | -122.22591 | 2268 ft | 177 kts | 299° |
| 2026-05-06 13:52 | 37.56131 | -122.23921 | 2086 ft | 166 kts | 299° |
| 2026-05-06 13:52 | 37.56659 | -122.25169 | 1853 ft | 159 kts | 299° |
| 2026-05-06 13:52 | 37.57156 | -122.26348 | 1688 ft | 145 kts | 299° |
| 2026-05-06 13:52 | 37.57611 | -122.27426 | 1480 ft | 134 kts | 299° |
| 2026-05-06 13:53 | 37.58036 | -122.28426 | 1276 ft | 123 kts | 299° |
| 2026-05-06 13:53 | 37.58426 | -122.29346 | 1121 ft | 124 kts | 299° |
| 2026-05-06 13:53 | 37.58867 | -122.30385 | 1045 ft | 142 kts | 299° |
| 2026-05-06 13:53 | 37.59331 | -122.31485 | 821 ft | 140 kts | 299° |
| 2026-05-06 13:54 | 37.59784 | -122.32558 | 621 ft | 137 kts | 298° |
| 2026-05-06 13:54 | 37.60222 | -122.33590 | 453 ft | 137 kts | 300° |
| 2026-05-06 13:54 | 37.60677 | -122.34642 | 323 ft | 137 kts | 299° |
| 2026-05-06 13:54 | 37.61118 | -122.35728 | 124 ft | 141 kts | 299° |
| 2026-05-06 13:55 | 37.61571 | -122.36777 | 15 ft | 134 kts | 299° |
| 2026-05-06 13:55 | 37.61895 | -122.37562 | 25 ft | 78 kts | 297° |
| 2026-05-06 13:55 | 37.62103 | -122.38057 | 34 ft | 49 kts | 298° |
| 2026-05-06 13:55 | 37.62242 | -122.38391 | 32 ft | 37 kts | 297° |
| 2026-05-06 13:56 | 37.62250 | -122.38580 | 32 ft | 13 kts | 215° |
| 2026-05-06 13:56 | 37.62204 | -122.38615 | 33 ft | 3 kts | 208° |
| 2026-05-06 13:56 | 37.62203 | -122.38615 | 33 ft | 0 kts | 208° |
| 2026-05-06 13:56 | 37.62202 | -122.38615 | 33 ft | 0 kts | 208° |
| 2026-05-06 13:58 | 37.62188 | -122.38627 | 33 ft | 5 kts | 218° |
| 2026-05-06 13:58 | 37.62180 | -122.38721 | 34 ft | 16 kts | 298° |
| 2026-05-06 13:58 | 37.62205 | -122.38773 | 33 ft | 0 kts | 298° |
| 2026-05-06 13:59 | 37.62206 | -122.38775 | 33 ft | 3 kts | 298° |
| 2026-05-06 13:59 | 37.62242 | -122.38860 | 33 ft | 20 kts | 298° |
| 2026-05-06 13:59 | 37.62250 | -122.39023 | 32 ft | 10 kts | 250° |
| 2026-05-06 13:59 | 37.62246 | -122.39038 | 32 ft | 3 kts | 250° |
| 2026-05-06 14:00 | 37.62228 | -122.39063 | 33 ft | 3 kts | 204° |
| 2026-05-06 14:00 | 37.62219 | -122.39065 | 33 ft | 1 kts | 183° |
| 2026-05-06 14:00 | 37.62200 | -122.39063 | 33 ft | 5 kts | 171° |
| 2026-05-06 14:00 | 37.62170 | -122.39054 | 34 ft | 3 kts | 164° |
| 2026-05-06 14:01 | 37.62156 | -122.39049 | 34 ft | 1 kts | 163° |
| 2026-05-06 14:01 | 37.62150 | -122.39047 | 34 ft | 0 kts | 163° |
| 2026-05-06 14:05 | 37.62144 | -122.39045 | 34 ft | 0 kts | 163° |